createdAt,value
2019-01-30T00:00:25.114Z,97769.44
2019-01-30T00:02:54.762Z,97761.59
2019-01-30T00:05:24.470Z,97757.76
2019-01-30T00:07:54.229Z,97751.31
2019-01-30T00:10:23.948Z,97739.23
2019-01-30T00:12:53.704Z,97736.21
2019-01-30T00:15:23.589Z,97736.89
2019-01-30T00:17:53.251Z,97736.20
2019-01-30T00:20:22.876Z,97729.20
2019-01-30T00:22:52.610Z,97741.98
2019-01-30T00:25:23.943Z,97751.85
2019-01-30T00:27:53.706Z,97757.81
2019-01-30T00:30:24.593Z,97753.36
2019-01-30T00:32:54.296Z,97739.94
2019-01-30T00:35:23.918Z,97737.70
2019-01-30T00:37:53.596Z,97733.11
2019-01-30T00:40:23.712Z,97726.05
2019-01-30T00:42:53.322Z,97719.86
2019-01-30T00:45:23.256Z,97727.17
2019-01-30T00:47:52.962Z,97733.89
2019-01-30T00:50:23.265Z,97727.89
2019-01-30T00:52:53.107Z,97732.85
2019-01-30T00:55:22.858Z,97744.30
2019-01-30T00:57:52.478Z,97733.31
2019-01-30T01:00:22.970Z,97725.02
2019-01-30T01:02:52.817Z,97722.59
2019-01-30T01:05:22.721Z,97707.34
2019-01-30T01:07:52.702Z,97715.23
2019-01-30T01:10:22.688Z,97704.39
2019-01-30T01:12:52.548Z,97701.26
2019-01-30T01:15:22.210Z,97689.52
2019-01-30T01:17:51.813Z,97688.65
2019-01-30T01:20:21.635Z,97672.81
2019-01-30T01:22:51.484Z,97669.09
2019-01-30T01:25:21.216Z,97660.34
2019-01-30T01:27:50.806Z,97662.23
2019-01-30T01:30:25.395Z,97656.91
2019-01-30T01:32:54.416Z,97658.36
2019-01-30T01:35:24.112Z,97652.77
2019-01-30T01:37:53.880Z,97646.35
2019-01-30T01:40:23.706Z,97649.84
2019-01-30T01:42:53.334Z,97647.14
2019-01-30T01:45:24.264Z,97644.03
2019-01-30T01:47:53.960Z,97645.56
2019-01-30T01:50:23.695Z,97645.80
2019-01-30T01:52:53.479Z,97631.84
2019-01-30T01:55:23.091Z,97625.25
2019-01-30T01:57:52.747Z,97609.94
2019-01-30T02:00:23.023Z,97610.95
2019-01-30T02:02:52.924Z,97630.50
2019-01-30T02:05:23.362Z,97627.20
2019-01-30T02:07:53.306Z,97627.61
2019-01-30T02:10:23.832Z,97632.57
2019-01-30T02:12:53.732Z,97637.36
2019-01-30T02:15:24.091Z,97638.22
2019-01-30T02:17:53.773Z,97651.95
2019-01-30T02:20:28.712Z,97634.14
2019-01-30T02:22:58.422Z,97632.28
2019-01-30T02:25:28.126Z,97628.23
2019-01-30T02:27:57.862Z,97643.92
2019-01-30T02:30:29.261Z,97638.91
2019-01-30T02:32:58.973Z,97646.98
2019-01-30T02:35:28.633Z,97657.19
2019-01-30T02:37:58.325Z,97662.98
2019-01-30T02:40:27.923Z,97651.72
2019-01-30T02:42:57.579Z,97648.27
2019-01-30T02:45:27.515Z,97636.08
2019-01-30T02:47:57.152Z,97636.84
2019-01-30T02:50:26.978Z,97640.55
2019-01-30T02:52:56.581Z,97627.21
2019-01-30T02:55:26.177Z,97631.91
2019-01-30T02:57:55.855Z,97630.48
2019-01-30T03:00:30.134Z,97638.82
2019-01-30T03:02:59.897Z,97631.84
2019-01-30T03:05:29.915Z,97630.22
2019-01-30T03:07:59.691Z,97625.61
2019-01-30T03:10:29.432Z,97626.03
2019-01-30T03:12:59.062Z,97616.74
2019-01-30T03:15:28.787Z,97618.46
2019-01-30T03:17:58.463Z,97610.97
2019-01-30T03:20:28.200Z,97596.61
2019-01-30T03:22:57.783Z,97592.67
2019-01-30T03:25:27.622Z,97600.40
2019-01-30T03:27:57.212Z,97617.30
2019-01-30T03:30:28.832Z,97601.88
2019-01-30T03:32:59.667Z,97601.80
2019-01-30T03:35:29.476Z,97597.38
2019-01-30T03:37:59.061Z,97607.41
2019-01-30T03:40:28.794Z,97611.22
2019-01-30T03:42:58.425Z,97608.44
2019-01-30T03:45:28.228Z,97621.31
2019-01-30T03:47:57.968Z,97618.46
2019-01-30T03:50:27.584Z,97623.92
2019-01-30T03:52:57.186Z,97617.91
2019-01-30T03:55:26.952Z,97614.00
2019-01-30T03:57:56.552Z,97608.20
2019-01-30T04:00:26.896Z,97612.84
2019-01-30T04:02:56.678Z,97611.76
2019-01-30T04:05:26.298Z,97604.48
2019-01-30T04:07:56.029Z,97601.50
2019-01-30T04:10:25.893Z,97592.33
2019-01-30T04:12:55.475Z,97588.84
2019-01-30T04:15:25.092Z,97606.61
2019-01-30T04:17:54.777Z,97596.81
2019-01-30T04:20:24.690Z,97610.74
2019-01-30T04:22:54.335Z,97601.22
2019-01-30T04:25:24.060Z,97594.19
2019-01-30T04:27:53.687Z,97606.07
2019-01-30T04:30:24.641Z,97606.00
2019-01-30T04:32:54.598Z,97610.84
2019-01-30T04:35:24.297Z,97610.17
2019-01-30T04:37:53.872Z,97611.42
2019-01-30T04:40:23.735Z,97600.14
2019-01-30T04:42:53.438Z,97586.47
2019-01-30T04:45:24.564Z,97588.10
2019-01-30T04:47:54.262Z,97589.48
2019-01-30T04:50:23.955Z,97589.99
2019-01-30T04:52:53.580Z,97594.64
2019-01-30T04:55:23.219Z,97603.62
2019-01-30T04:57:52.824Z,97609.27
2019-01-30T05:00:24.179Z,97603.78
2019-01-30T05:02:54.114Z,97606.30
2019-01-30T05:05:23.716Z,97604.83
2019-01-30T05:07:53.420Z,97608.83
2019-01-30T05:10:23.089Z,97609.11
2019-01-30T05:12:52.718Z,97610.75
2019-01-30T05:15:23.303Z,97613.52
2019-01-30T05:17:52.986Z,97609.31
2019-01-30T05:20:22.739Z,97600.56
2019-01-30T05:22:52.448Z,97606.67
2019-01-30T05:25:22.248Z,97609.99
2019-01-30T05:27:51.854Z,97600.43
2019-01-30T05:30:28.156Z,97604.81
2019-01-30T05:32:57.772Z,97608.03
2019-01-30T05:35:27.465Z,97608.66
2019-01-30T05:37:57.429Z,97597.11
2019-01-30T05:40:27.026Z,97599.20
2019-01-30T05:42:56.649Z,97605.16
2019-01-30T05:45:26.298Z,97611.05
2019-01-30T05:47:55.883Z,97612.45
2019-01-30T05:50:25.589Z,97608.53
2019-01-30T05:52:55.446Z,97610.53
2019-01-30T05:55:25.038Z,97616.65
2019-01-30T05:57:54.648Z,97622.95
2019-01-30T06:00:28.518Z,97615.25
2019-01-30T06:02:58.105Z,97601.72
2019-01-30T06:05:27.886Z,97599.31
2019-01-30T06:07:57.608Z,97615.88
2019-01-30T06:10:27.212Z,97604.11
2019-01-30T06:12:56.808Z,97602.49
2019-01-30T06:15:26.756Z,97598.16
2019-01-30T06:17:56.363Z,97608.66
2019-01-30T06:20:27.220Z,97618.59
2019-01-30T06:22:57.345Z,97617.13
2019-01-30T06:25:27.162Z,97609.38
2019-01-30T06:27:56.741Z,97606.86
2019-01-30T06:30:26.693Z,97614.73
2019-01-30T06:32:56.397Z,97608.41
2019-01-30T06:35:26.002Z,97608.61
2019-01-30T06:37:55.682Z,97593.67
2019-01-30T06:40:33.280Z,97593.59
2019-01-30T06:43:03.033Z,97598.28
2019-01-30T06:45:32.813Z,97590.33
2019-01-30T06:48:02.440Z,97603.78
2019-01-30T06:50:32.147Z,97592.47
2019-01-30T06:53:01.721Z,97587.56
2019-01-30T06:55:31.619Z,97586.64
2019-01-30T06:58:01.329Z,97573.44
2019-01-30T07:00:34.138Z,97578.72
2019-01-30T07:03:04.871Z,97578.08
2019-01-30T07:05:34.519Z,97574.44
2019-01-30T07:08:04.899Z,97571.80
2019-01-30T07:10:35.041Z,97572.36
2019-01-30T07:13:06.926Z,97578.11
2019-01-30T07:15:37.379Z,97575.91
2019-01-30T07:18:07.577Z,97572.01
2019-01-30T07:20:38.058Z,97576.02
2019-01-30T07:23:09.101Z,97584.28
2019-01-30T07:25:39.343Z,97576.11
2019-01-30T07:28:09.864Z,97577.90
2019-01-30T07:30:40.791Z,97577.55
2019-01-30T07:33:11.462Z,97594.16
2019-01-30T07:35:42.738Z,97592.39
2019-01-30T07:38:13.218Z,97591.47
2019-01-30T07:40:44.964Z,97605.30
2019-01-30T07:43:17.659Z,97604.88
2019-01-30T07:45:47.284Z,97596.91
2019-01-30T07:48:17.777Z,97600.56
2019-01-30T07:50:47.604Z,97593.17
2019-01-30T07:53:17.367Z,97589.41
2019-01-30T07:55:48.607Z,97593.95
2019-01-30T07:58:18.892Z,97588.07
2019-01-30T08:00:48.881Z,97582.83
2019-01-30T08:03:19.361Z,97587.98
2019-01-30T08:05:50.177Z,97595.59
2019-01-30T08:08:20.585Z,97586.11
2019-01-30T08:10:51.069Z,97585.39
2019-01-30T08:13:21.339Z,97588.98
2019-01-30T08:15:51.286Z,97592.61
2019-01-30T08:18:21.895Z,97599.41
2019-01-30T08:20:51.559Z,97611.05
2019-01-30T08:23:21.432Z,97606.95
2019-01-30T08:25:51.289Z,97618.25
2019-01-30T08:28:21.252Z,97603.86
2019-01-30T08:30:51.038Z,97608.88
2019-01-30T08:33:21.619Z,97624.66
2019-01-30T08:35:51.461Z,97630.05
2019-01-30T08:38:21.241Z,97639.40
2019-01-30T08:40:51.015Z,97630.34
2019-01-30T08:43:20.687Z,97639.83
2019-01-30T08:45:50.484Z,97636.00
2019-01-30T08:48:20.842Z,97633.97
2019-01-30T08:50:50.918Z,97639.03
2019-01-30T08:53:20.945Z,97634.34
2019-01-30T08:55:51.167Z,97636.59
2019-01-30T08:58:20.922Z,97621.76
2019-01-30T09:00:50.842Z,97629.06
2019-01-30T09:03:20.600Z,97619.72
2019-01-30T09:05:50.655Z,97620.33
2019-01-30T09:08:20.523Z,97624.36
2019-01-30T09:10:50.720Z,97617.14
2019-01-30T09:13:20.649Z,97629.42
2019-01-30T09:15:51.002Z,97610.85
2019-01-30T09:18:22.614Z,97615.09
2019-01-30T09:20:52.240Z,97607.74
2019-01-30T09:23:21.921Z,97605.70
2019-01-30T09:25:51.589Z,97598.23
2019-01-30T09:28:21.206Z,97590.63
2019-01-30T09:30:50.844Z,97594.39
2019-01-30T09:33:25.915Z,97607.03
2019-01-30T09:35:51.812Z,97592.84
2019-01-30T09:38:21.453Z,97589.64
2019-01-30T09:40:51.103Z,97601.38
2019-01-30T09:43:20.708Z,97590.98
2019-01-30T09:45:50.376Z,97592.62
2019-01-30T09:48:20.050Z,97594.97
2019-01-30T09:50:49.665Z,97598.48
2019-01-30T09:53:19.331Z,97597.55
2019-01-30T09:55:49.113Z,97591.18
2019-01-30T09:58:18.947Z,97589.72
2019-01-30T10:00:48.806Z,97586.28
2019-01-30T10:03:18.552Z,97591.27
2019-01-30T10:05:48.161Z,97584.28
2019-01-30T10:08:17.803Z,97586.14
2019-01-30T10:10:47.452Z,97578.58
2019-01-30T10:13:17.097Z,97565.05
2019-01-30T10:15:46.836Z,97563.53
2019-01-30T10:18:16.894Z,97568.38
2019-01-30T10:20:47.862Z,97551.27
2019-01-30T10:23:17.502Z,97552.71
2019-01-30T10:25:47.260Z,97551.38
2019-01-30T10:28:17.259Z,97547.00
2019-01-30T10:30:47.696Z,97545.09
2019-01-30T10:33:17.353Z,97551.72
2019-01-30T10:35:47.295Z,97539.80
2019-01-30T10:38:17.252Z,97535.61
2019-01-30T10:40:47.280Z,97539.73
2019-01-30T10:43:17.363Z,97541.08
2019-01-30T10:45:47.114Z,97525.32
2019-01-30T10:48:17.034Z,97525.91
2019-01-30T10:50:46.874Z,97520.89
2019-01-30T10:53:16.742Z,97515.22
2019-01-30T10:55:46.607Z,97510.93
2019-01-30T10:58:18.116Z,97518.52
2019-01-30T11:00:52.693Z,97513.24
2019-01-30T11:03:22.534Z,97500.27
2019-01-30T11:05:52.549Z,97496.30
2019-01-30T11:08:22.320Z,97496.75
2019-01-30T11:10:52.193Z,97483.58
2019-01-30T11:13:21.944Z,97486.70
2019-01-30T11:15:51.861Z,97482.90
2019-01-30T11:18:21.954Z,97489.95
2019-01-30T11:20:51.917Z,97486.23
2019-01-30T11:23:21.684Z,97482.48
2019-01-30T11:25:51.601Z,97478.00
2019-01-30T11:28:21.328Z,97473.62
2019-01-30T11:30:51.111Z,97469.48
2019-01-30T11:33:20.826Z,97468.39
2019-01-30T11:35:50.640Z,97462.03
2019-01-30T11:38:20.660Z,97464.20
2019-01-30T11:40:50.616Z,97455.09
2019-01-30T11:43:20.542Z,97456.80
2019-01-30T11:45:50.568Z,97453.59
2019-01-30T11:48:20.418Z,97452.45
2019-01-30T11:50:50.150Z,97439.87
2019-01-30T11:53:20.050Z,97443.64
2019-01-30T11:55:49.799Z,97440.23
2019-01-30T11:58:19.503Z,97443.90
2019-01-30T12:00:58.501Z,97430.63
2019-01-30T12:03:28.314Z,97439.09
2019-01-30T12:05:58.123Z,97433.59
2019-01-30T12:08:28.169Z,97440.08
2019-01-30T12:10:57.991Z,97430.56
2019-01-30T12:13:27.938Z,97430.05
2019-01-30T12:15:57.720Z,97439.42
2019-01-30T12:18:27.453Z,97424.33
2019-01-30T12:20:57.230Z,97425.77
2019-01-30T12:23:27.137Z,97421.42
2019-01-30T12:25:56.898Z,97421.41
2019-01-30T12:28:26.657Z,97423.03
2019-01-30T12:30:56.448Z,97419.25
2019-01-30T12:33:26.210Z,97413.70
2019-01-30T12:35:55.959Z,97416.60
2019-01-30T12:38:25.738Z,97414.20
2019-01-30T12:40:55.467Z,97408.95
2019-01-30T12:43:25.193Z,97397.06
2019-01-30T12:45:54.984Z,97407.41
2019-01-30T12:48:24.771Z,97404.51
2019-01-30T12:50:54.886Z,97400.55
2019-01-30T12:53:24.743Z,97389.98
2019-01-30T12:55:54.548Z,97387.91
2019-01-30T12:58:24.294Z,97390.61
2019-01-30T13:00:54.160Z,97388.42
2019-01-30T13:03:23.931Z,97401.41
2019-01-30T13:05:53.706Z,97398.27
2019-01-30T13:08:23.587Z,97404.55
2019-01-30T13:10:53.318Z,97405.89
2019-01-30T13:13:23.037Z,97409.31
2019-01-30T13:15:53.015Z,97408.08
2019-01-30T13:18:22.960Z,97405.81
2019-01-30T13:20:52.672Z,97410.34
2019-01-30T13:23:22.572Z,97408.78
2019-01-30T13:25:52.431Z,97412.17
2019-01-30T13:28:22.340Z,97407.75
2019-01-30T13:30:52.294Z,97406.42
2019-01-30T13:33:22.267Z,97408.16
2019-01-30T13:35:52.013Z,97408.02
2019-01-30T13:38:21.939Z,97412.77
2019-01-30T13:40:51.775Z,97415.74
2019-01-30T13:43:22.129Z,97412.81
2019-01-30T13:45:51.913Z,97407.53
2019-01-30T13:48:22.423Z,97411.87
2019-01-30T13:50:52.162Z,97419.55
2019-01-30T13:53:22.247Z,97413.47
2019-01-30T13:55:52.136Z,97407.97
2019-01-30T13:58:24.044Z,97409.00
2019-01-30T14:00:53.837Z,97402.91
2019-01-30T14:03:24.172Z,97405.06
2019-01-30T14:05:54.026Z,97410.74
2019-01-30T14:08:24.064Z,97421.20
2019-01-30T14:10:54.436Z,97412.53
2019-01-30T14:13:24.160Z,97419.39
2019-01-30T14:15:54.032Z,97416.09
2019-01-30T14:18:23.820Z,97418.04
2019-01-30T14:20:53.525Z,97408.72
2019-01-30T14:23:23.357Z,97420.48
2019-01-30T14:25:56.936Z,97418.91
2019-01-30T14:28:27.251Z,97415.94
2019-01-30T14:30:57.143Z,97420.15
2019-01-30T14:33:26.928Z,97420.48
2019-01-30T14:35:56.743Z,97423.02
2019-01-30T14:38:26.964Z,97422.20
2019-01-30T14:40:56.731Z,97426.52
2019-01-30T14:43:26.471Z,97431.86
2019-01-30T14:45:56.289Z,97422.09
2019-01-30T14:48:25.975Z,97431.09
2019-01-30T14:50:55.929Z,97438.96
2019-01-30T14:53:25.706Z,97435.82
2019-01-30T14:55:55.548Z,97426.86
2019-01-30T14:58:25.301Z,97429.33
2019-01-30T15:00:55.311Z,97437.75
2019-01-30T15:03:25.021Z,97442.38
2019-01-30T15:05:54.827Z,97448.63
2019-01-30T15:08:24.572Z,97451.42
2019-01-30T15:10:54.392Z,97442.05
2019-01-30T15:13:24.187Z,97447.20
2019-01-30T15:15:53.903Z,97441.88
2019-01-30T15:18:23.650Z,97449.75
2019-01-30T15:20:53.520Z,97446.83
2019-01-30T15:23:23.232Z,97449.27
2019-01-30T15:25:52.982Z,97444.84
2019-01-30T15:28:22.769Z,97440.70
2019-01-30T15:30:52.585Z,97448.34
2019-01-30T15:33:22.306Z,97451.23
2019-01-30T15:35:52.108Z,97446.39
2019-01-30T15:38:21.947Z,97453.20
2019-01-30T15:40:51.908Z,97456.70
2019-01-30T15:43:21.986Z,97446.78
2019-01-30T15:45:51.811Z,97446.75
2019-01-30T15:48:21.643Z,97439.25
2019-01-30T15:50:51.616Z,97440.59
2019-01-30T15:53:23.126Z,97445.80
2019-01-30T15:55:53.062Z,97454.55
2019-01-30T15:58:22.955Z,97456.66
2019-01-30T16:01:25.661Z,97457.67
2019-01-30T16:03:55.523Z,97457.33
2019-01-30T16:06:25.327Z,97456.37
2019-01-30T16:08:55.184Z,97459.34
2019-01-30T16:11:25.047Z,97457.33
2019-01-30T16:13:54.884Z,97457.01
2019-01-30T16:16:24.818Z,97453.89
2019-01-30T16:18:54.646Z,97456.44
2019-01-30T16:21:24.362Z,97458.53
2019-01-30T16:23:54.105Z,97469.56
2019-01-30T16:26:23.958Z,97467.09
2019-01-30T16:28:53.689Z,97465.92
2019-01-30T16:31:23.503Z,97460.38
2019-01-30T16:33:53.376Z,97465.75
2019-01-30T16:36:25.159Z,97464.86
2019-01-30T16:38:54.527Z,97463.59
2019-01-30T16:41:24.300Z,97466.38
2019-01-30T16:43:54.151Z,97458.13
2019-01-30T16:46:24.021Z,97458.59
2019-01-30T16:48:53.835Z,97461.24
2019-01-30T16:51:23.907Z,97460.77
2019-01-30T16:53:54.205Z,97463.10
2019-01-30T16:56:24.395Z,97463.39
2019-01-30T16:58:54.202Z,97469.23
2019-01-30T17:01:24.035Z,97473.52
2019-01-30T17:03:53.821Z,97479.17
2019-01-30T17:06:24.552Z,97476.47
2019-01-30T17:09:51.306Z,97472.58
2019-01-30T17:16:26.424Z,97467.80
2019-01-30T17:19:19.712Z,97464.52
2019-01-30T17:22:08.747Z,97469.00
2019-01-30T17:24:58.025Z,97469.31
2019-01-30T17:27:37.723Z,97464.52
2019-01-30T17:30:42.473Z,97464.56
2019-01-30T17:33:12.262Z,97465.15
2019-01-30T17:35:42.951Z,97460.84
2019-01-30T17:38:12.944Z,97461.68
2019-01-30T17:40:43.548Z,97461.30
2019-01-30T17:43:14.442Z,97458.33
2019-01-30T17:45:44.062Z,97467.79
2019-01-30T17:48:14.935Z,97475.31
2019-01-30T17:50:44.710Z,97475.95
2019-01-30T17:53:14.331Z,97479.80
2019-01-30T17:55:43.962Z,97471.97
2019-01-30T17:58:13.668Z,97483.14
2019-01-30T18:00:48.356Z,97474.99
2019-01-30T18:03:17.977Z,97479.44
2019-01-30T18:05:47.788Z,97488.71
2019-01-30T18:08:17.584Z,97489.25
2019-01-30T18:10:47.199Z,97489.16
2019-01-30T18:13:16.917Z,97482.34
2019-01-30T18:15:46.690Z,97482.34
2019-01-30T18:18:16.267Z,97483.18
2019-01-30T18:20:45.983Z,97493.65
2019-01-30T18:23:15.840Z,97497.05
2019-01-30T18:25:45.429Z,97497.35
2019-01-30T18:28:15.154Z,97499.63
2019-01-30T18:30:44.816Z,97500.11
2019-01-30T18:33:14.545Z,97499.27
2019-01-30T18:35:44.241Z,97497.55
2019-01-30T18:38:14.347Z,97497.62
2019-01-30T18:40:44.023Z,97499.66
2019-01-30T18:43:13.793Z,97503.28
2019-01-30T18:45:43.449Z,97501.08
2019-01-30T18:48:13.048Z,97498.64
2019-01-30T18:50:45.611Z,97507.59
2019-01-30T18:53:14.141Z,97510.72
2019-01-30T18:55:43.754Z,97506.73
2019-01-30T18:58:13.511Z,97500.67
2019-01-30T19:00:44.415Z,97508.69
2019-01-30T19:03:18.398Z,97509.99
2019-01-30T19:05:48.405Z,97506.81
2019-01-30T19:08:18.270Z,97504.12
2019-01-30T19:10:47.928Z,97510.39
2019-01-30T19:13:17.761Z,97507.95
2019-01-30T19:15:47.572Z,97515.81
2019-01-30T19:18:17.645Z,97515.03
2019-01-30T19:20:49.100Z,97518.28
2019-01-30T19:23:18.888Z,97514.20
2019-01-30T19:25:48.626Z,97512.83
2019-01-30T19:28:18.401Z,97519.34
2019-01-30T19:30:48.083Z,97519.58
2019-01-30T19:33:17.785Z,97516.97
2019-01-30T19:35:47.513Z,97512.61
2019-01-30T19:38:17.258Z,97512.09
2019-01-30T19:40:46.889Z,97519.17
2019-01-30T19:43:16.632Z,97525.08
2019-01-30T19:45:46.246Z,97523.00
2019-01-30T19:48:15.947Z,97521.66
2019-01-30T19:50:45.648Z,97524.16
2019-01-30T19:53:15.454Z,97525.72
2019-01-30T19:55:45.240Z,97526.42
2019-01-30T19:58:14.931Z,97524.63
2019-01-30T20:00:47.093Z,97527.11
2019-01-30T20:03:31.194Z,97531.19
2019-01-30T20:06:00.372Z,97528.98
2019-01-30T20:08:30.143Z,97521.49
2019-01-30T20:10:59.920Z,97526.10
2019-01-30T20:13:29.718Z,97530.05
2019-01-30T20:15:59.414Z,97533.50
2019-01-30T20:18:29.401Z,97538.87
2019-01-30T20:20:59.061Z,97542.17
2019-01-30T20:23:28.677Z,97539.98
2019-01-30T20:25:58.441Z,97536.77
2019-01-30T20:28:28.139Z,97540.75
2019-01-30T20:30:57.811Z,97537.61
2019-01-30T20:33:28.147Z,97545.48
2019-01-30T20:35:57.759Z,97544.50
2019-01-30T20:38:27.385Z,97538.76
2019-01-30T20:40:57.039Z,97544.63
2019-01-30T20:43:26.660Z,97547.36
2019-01-30T20:45:56.310Z,97547.23
2019-01-30T20:48:26.044Z,97550.11
2019-01-30T20:50:55.671Z,97551.66
2019-01-30T20:53:25.284Z,97552.56
2019-01-30T20:55:54.934Z,97554.35
2019-01-30T20:58:24.552Z,97555.86
2019-01-30T21:00:54.214Z,97553.33
2019-01-30T21:03:23.940Z,97555.61
2019-01-30T21:05:53.554Z,97557.16
2019-01-30T21:08:23.167Z,97561.59
2019-01-30T21:10:52.854Z,97568.20
2019-01-30T21:13:22.601Z,97566.48
2019-01-30T21:15:52.294Z,97563.91
2019-01-30T21:18:21.988Z,97569.28
2019-01-30T21:20:51.617Z,97565.38
2019-01-30T21:23:21.230Z,97573.11
2019-01-30T21:25:50.983Z,97570.25
2019-01-30T21:28:20.593Z,97574.48
2019-01-30T21:30:50.203Z,97573.79
2019-01-30T21:33:19.894Z,97569.56
2019-01-30T21:35:49.680Z,97578.64
2019-01-30T21:38:19.276Z,97579.05
2019-01-30T21:40:48.945Z,97578.11
2019-01-30T21:43:18.639Z,97581.00
2019-01-30T21:45:48.237Z,97577.91
2019-01-30T21:48:18.021Z,97583.22
2019-01-30T21:50:47.623Z,97585.73
2019-01-30T21:53:17.227Z,97583.42
2019-01-30T21:55:46.909Z,97578.53
2019-01-30T21:58:16.484Z,97585.87
2019-01-30T22:00:46.151Z,97585.13
2019-01-30T22:03:15.822Z,97589.06
2019-01-30T22:05:45.523Z,97584.69
2019-01-30T22:08:15.114Z,97589.27
2019-01-30T22:10:44.951Z,97587.95
2019-01-30T22:13:14.721Z,97582.64
2019-01-30T22:15:44.341Z,97581.83
2019-01-30T22:18:14.295Z,97575.92
2019-01-30T22:20:43.965Z,97578.64
2019-01-30T22:23:13.581Z,97580.39
2019-01-30T22:25:43.401Z,97580.80
2019-01-30T22:28:13.096Z,97578.70
2019-01-30T22:30:42.686Z,97576.45
2019-01-30T22:33:12.399Z,97580.16
2019-01-30T22:35:41.998Z,97575.73
2019-01-30T22:38:12.916Z,97575.61
2019-01-30T22:40:42.704Z,97572.66
2019-01-30T22:43:12.324Z,97578.41
2019-01-30T22:45:41.952Z,97574.44
2019-01-30T22:48:11.767Z,97580.42
2019-01-30T22:50:41.404Z,97577.83
2019-01-30T22:53:11.166Z,97576.11
2019-01-30T22:55:40.894Z,97578.29
2019-01-30T22:58:10.508Z,97568.98
2019-01-30T23:01:45.072Z,97565.66
2019-01-30T23:04:40.827Z,97567.33
2019-01-30T23:07:24.701Z,97557.69
2019-01-30T23:10:30.915Z,97561.83
2019-01-30T23:13:33.353Z,97564.87
2019-01-30T23:16:43.952Z,97569.19
2019-01-30T23:19:53.143Z,97561.83
2019-01-30T23:22:49.286Z,97560.78
2019-01-30T23:25:49.602Z,97569.25
2019-01-30T23:28:58.239Z,97570.50
2019-01-30T23:31:58.419Z,97569.04
2019-01-30T23:35:07.047Z,97558.66
2019-01-30T23:38:18.322Z,97555.65
2019-01-30T23:41:18.367Z,97554.11
2019-01-30T23:44:05.642Z,97550.16
2019-01-30T23:47:23.862Z,97563.67
2019-01-30T23:50:18.002Z,97562.77
2019-01-30T23:53:10.950Z,97553.14
2019-01-30T23:56:07.574Z,97545.25
2019-01-30T23:59:02.339Z,97552.17
